Time;durP1;ratioP1;P1;durP2;ratioP2;P2;SDS_P1;SDS_P2;PMS_P1;PMS_P2;Temp;Humidity;BMP_temperature;BMP_pressure;BME280_temperature;BME280_humidity;BME280_pressure;Samples;Min_cycle;Max_cycle;Signal;HPM_P1;HPM_P2
2021/12/14 00:04:36;;;;;;;136.63;46.97;;;;;;;2.00;100.00;101787.20;5048007;57;1143181;-81
2021/12/14 00:09:44;;;;;;;129.40;54.47;;;;;;;1.96;100.00;101780.34;5048120;57;1143335;-82
2021/12/14 00:15:04;;;;;;;101.20;44.17;;;;;;;1.98;100.00;101772.05;5047353;57;1143375;-80
2021/12/14 00:20:39;;;;;;;96.00;41.40;;;;;;;2.02;100.00;101778.45;5159037;56;1143161;-80
2021/12/14 00:25:53;;;;;;;105.33;45.57;;;;;;;2.13;100.00;101782.59;5080474;57;1141203;-81
2021/12/14 00:31:04;;;;;;;123.40;44.93;;;;;;;2.24;100.00;101773.61;5106332;57;1140954;-83
2021/12/14 00:36:13;;;;;;;113.77;44.10;;;;;;;2.28;100.00;101767.44;5106590;57;1141131;-81
2021/12/14 00:41:23;;;;;;;103.73;40.67;;;;;;;2.25;100.00;101761.42;5106631;57;1141286;-81
2021/12/14 00:46:30;;;;;;;81.23;36.47;;;;;;;2.24;100.00;101768.84;5106734;57;1143278;-80
2021/12/14 00:51:35;;;;;;;83.60;36.13;;;;;;;2.27;100.00;101763.11;5106753;57;1141263;-83
2021/12/14 00:56:44;;;;;;;77.00;34.60;;;;;;;2.31;100.00;101767.78;5106917;57;1139155;-83
2021/12/14 01:01:57;;;;;;;78.07;36.50;;;;;;;2.30;100.00;101772.59;5107832;57;1139043;-83
2021/12/14 01:07:06;;;;;;;64.70;29.52;;;;;;;2.30;100.00;101760.40;5106145;57;1139270;-80
2021/12/14 01:12:20;;;;;;;56.27;28.03;;;;;;;2.32;100.00;101762.98;5107943;57;1137094;-81
2021/12/14 01:17:42;;;;;;;54.77;25.73;;;;;;;2.35;100.00;101761.16;5069262;57;1143164;-81
2021/12/14 01:22:43;;;;;;;54.23;23.97;;;;;;;2.37;100.00;101776.34;4897770;58;1143315;-79
2021/12/14 01:27:57;;;;;;;79.57;31.00;;;;;;;2.34;100.00;101779.02;4945058;58;1141149;-81
2021/12/14 01:33:11;;;;;;;60.27;25.10;;;;;;;2.33;100.00;101774.69;4945863;59;1141180;-80
2021/12/14 01:38:32;;;;;;;59.27;27.17;;;;;;;2.37;100.00;101771.12;4942071;59;1143227;-80
2021/12/14 01:43:42;;;;;;;63.57;29.70;;;;;;;2.43;100.00;101770.98;4943330;58;1143169;-81
2021/12/14 01:48:52;;;;;;;64.87;28.03;;;;;;;2.46;100.00;101751.75;4931901;58;1141475;-83
2021/12/14 01:54:22;;;;;;;66.73;31.13;;;;;;;2.45;100.00;101756.12;4800995;61;1141106;-82
2021/12/14 01:59:38;;;;;;;67.90;28.60;;;;;;;2.43;100.00;101754.02;4801318;60;1141340;-82
2021/12/14 02:04:43;;;;;;;58.93;28.57;;;;;;;2.48;100.00;101748.22;4803954;60;1143565;-80
2021/12/14 02:10:02;;;;;;;44.20;22.47;;;;;;;2.55;100.00;101748.08;4801105;60;1143393;-82
2021/12/14 02:15:19;;;;;;;73.13;28.50;;;;;;;2.55;100.00;101754.60;4804741;60;1141277;-82
2021/12/14 02:20:34;;;;;;;57.93;25.77;;;;;;;2.48;100.00;101755.19;4876127;60;1141231;-79
2021/12/14 02:25:40;;;;;;;57.90;25.80;;;;;;;2.57;100.00;101744.98;4989154;58;1141168;-82
2021/12/14 02:30:51;;;;;;;79.60;33.80;;;;;;;2.57;100.00;101744.98;5049903;58;1143273;-80
2021/12/14 02:35:57;;;;;;;85.37;32.70;;;;;;;2.63;100.00;101742.20;5050493;58;1140987;-82
2021/12/14 02:41:08;;;;;;;95.43;42.53;;;;;;;2.65;100.00;101737.34;5050624;58;1138985;-79
2021/12/14 02:46:37;;;;;;;55.73;30.07;;;;;;;2.64;100.00;101742.16;5046471;58;1139003;-80
2021/12/14 02:51:47;;;;;;;65.03;37.00;;;;;;;2.64;100.00;101739.55;5050237;57;1139008;-80
2021/12/14 02:57:06;;;;;;;50.50;24.40;;;;;;;2.70;100.00;101742.47;5049582;57;1141138;-82
2021/12/14 03:02:19;;;;;;;70.47;28.60;;;;;;;2.72;100.00;101744.59;5049399;57;1141120;-81
2021/12/14 03:07:30;;;;;;;55.80;28.73;;;;;;;2.76;100.00;101740.98;5027717;58;1139035;-79
2021/12/14 03:12:42;;;;;;;58.23;25.20;;;;;;;2.70;100.00;101728.96;5025885;57;1137044;-80
2021/12/14 03:17:52;;;;;;;47.97;25.17;;;;;;;2.66;100.00;101722.53;5067333;57;1141045;-78
2021/12/14 03:23:09;;;;;;;49.13;24.77;;;;;;;2.63;100.00;101720.86;5104314;57;1141325;-83
2021/12/14 03:28:18;;;;;;;45.60;21.47;;;;;;;2.65;100.00;101712.98;5119106;57;1143180;-81
2021/12/14 03:33:29;;;;;;;38.40;18.73;;;;;;;2.60;100.00;101706.56;5122219;57;1143221;-82
2021/12/14 03:38:42;;;;;;;55.13;25.00;;;;;;;2.57;100.00;101706.67;5122607;57;1143534;-82
2021/12/14 03:44:00;;;;;;;;;;;;;;;2.61;100.00;101704.81;5126048;57;1141102;-82
2021/12/14 03:49:09;;;;;;;45.50;21.73;;;;;;;2.58;100.00;101687.94;5099176;58;974229;-82
2021/12/14 03:54:19;;;;;;;42.73;21.30;;;;;;;2.54;100.00;101686.30;5096283;58;1138962;-83
2021/12/14 03:59:29;;;;;;;30.50;16.47;;;;;;;2.56;100.00;101688.42;5094220;58;1143175;-81
2021/12/14 04:04:41;;;;;;;31.60;16.27;;;;;;;2.58;100.00;101684.02;5086754;58;1143255;-82
2021/12/14 04:09:49;;;;;;;43.70;27.07;;;;;;;2.64;100.00;101681.23;5086601;57;1143393;-82
2021/12/14 04:14:58;;;;;;;32.20;13.43;;;;;;;2.60;100.00;101684.84;5121449;57;1141124;-82
2021/12/14 04:20:22;;;;;;;29.70;15.30;;;;;;;2.56;100.00;101684.51;5041477;57;1141148;-80
2021/12/14 04:25:33;;;;;;;32.23;15.83;;;;;;;2.57;100.00;101677.08;5035216;57;1143233;-82
2021/12/14 04:30:39;;;;;;;38.40;18.60;;;;;;;2.55;100.00;101657.53;5017820;58;1143212;-79
2021/12/14 04:35:48;;;;;;;36.97;18.63;;;;;;;2.69;100.00;101669.78;5018848;58;1143257;-85
2021/12/14 04:51:58;;;;;;;61.17;27.50;;;;;;;2.72;100.00;101668.39;4977170;58;1139129;-81
2021/12/14 04:57:02;;;;;;;36.13;16.60;;;;;;;2.74;100.00;101662.69;4976936;58;1141373;-81
2021/12/14 05:02:15;;;;;;;27.63;15.70;;;;;;;2.77;100.00;101663.88;4976228;58;1139167;-80
2021/12/14 05:12:39;;;;;;;46.87;24.97;;;;;;;2.73;100.00;101657.50;4977125;58;1141245;-81
2021/12/14 05:17:50;;;;;;;30.77;17.83;;;;;;;2.78;100.00;101642.53;5019418;57;1141048;-81
2021/12/14 05:22:56;;;;;;;37.80;20.53;;;;;;;2.83;100.00;101636.75;5058142;57;1139109;-80
2021/12/14 05:28:06;;;;;;;28.30;14.93;;;;;;;2.83;100.00;101636.75;5056893;57;1137191;-81
2021/12/14 05:33:23;;;;;;;20.83;11.73;;;;;;;2.82;100.00;101627.19;5056985;58;1141313;-80
2021/12/14 05:38:52;;;;;;;31.43;15.03;;;;;;;2.79;100.00;101639.03;4976973;57;1141326;-81
2021/12/14 05:43:51;;;;;;;31.73;16.00;;;;;;;2.76;100.00;101630.82;5044219;57;1143492;-81
2021/12/14 05:49:06;;;;;;;30.97;16.55;;;;;;;2.83;100.00;101638.05;5047932;57;1143562;-81
2021/12/14 05:54:26;;;;;;;34.73;17.67;;;;;;;2.89;100.00;101624.83;5048202;57;1140985;-81
2021/12/14 05:59:35;;;;;;;34.07;15.37;;;;;;;2.89;100.00;101619.61;5048564;57;1141590;-81
2021/12/14 06:04:47;;;;;;;32.03;14.00;;;;;;;2.85;100.00;101621.03;5048708;57;1141148;-80
2021/12/14 06:09:53;;;;;;;30.40;14.73;;;;;;;2.83;100.00;101626.30;5048564;57;1141059;-80
2021/12/14 06:15:17;;;;;;;35.10;17.07;;;;;;;2.82;100.00;101618.05;5048372;57;1141292;-79
2021/12/14 06:20:27;;;;;;;48.27;22.73;;;;;;;2.89;100.00;101607.84;5074905;57;1143192;-81
2021/12/14 06:25:34;;;;;;;62.83;30.27;;;;;;;2.94;100.00;101608.55;5007464;58;1141238;-81
2021/12/14 06:30:43;;;;;;;64.57;24.23;;;;;;;2.92;100.00;101597.28;4822743;58;1141128;-81
2021/12/14 06:35:54;;;;;;;85.07;35.60;;;;;;;2.93;100.00;101595.08;4822761;60;1141155;-81
2021/12/14 06:41:17;;;;;;;42.80;19.57;;;;;;;2.95;100.00;101594.59;4939545;59;1143382;-81
2021/12/14 06:46:32;;;;;;;38.47;21.33;;;;;;;2.98;100.00;101598.88;4926886;58;1143180;-81
2021/12/14 06:51:43;;;;;;;58.30;17.42;;;;;;;3.04;100.00;101611.78;4930820;58;1143182;-81
2021/12/14 06:56:58;;;;;;;32.00;16.47;;;;;;;3.01;100.00;101611.86;5126608;57;1139404;-81
2021/12/14 07:02:08;;;;;;;33.23;16.23;;;;;;;3.01;100.00;101615.33;5119575;57;1139007;-80
2021/12/14 07:07:16;;;;;;;30.60;16.83;;;;;;;2.99;100.00;101609.28;4968354;58;1141145;-80
2021/12/14 07:12:28;;;;;;;39.00;17.53;;;;;;;3.04;100.00;101624.84;4945178;58;1141171;-81
2021/12/14 07:17:42;;;;;;;57.67;17.97;;;;;;;3.07;100.00;101614.27;4985432;58;1141137;-81
2021/12/14 07:23:01;;;;;;;136.40;64.37;;;;;;;3.05;100.00;101629.17;4852465;59;1139089;-81
2021/12/14 07:28:16;;;;;;;134.53;86.47;;;;;;;3.02;100.00;101633.17;4937776;59;1141196;-81
2021/12/14 07:33:33;;;;;;;64.67;34.55;;;;;;;2.99;100.00;101643.70;4941544;59;1141168;-81
2021/12/14 07:38:52;;;;;;;68.50;45.10;;;;;;;2.97;100.00;101641.58;4942462;59;1143230;-81
2021/12/14 07:44:05;;;;;;;56.90;31.80;;;;;;;2.98;100.00;101639.38;4941549;59;1143329;-80
2021/12/14 07:49:33;;;;;;;122.40;50.85;;;;;;;3.00;100.00;101642.81;4942148;59;1143197;-80
2021/12/14 07:54:48;;;;;;;54.90;24.57;;;;;;;3.02;100.00;101644.48;4941059;59;1145350;-81
2021/12/14 07:59:58;;;;;;;83.53;38.13;;;;;;;3.00;100.00;101635.83;4940961;59;1141161;-81
2021/12/14 08:05:27;;;;;;;141.73;65.67;;;;;;;3.02;100.00;101632.72;4964169;58;1140879;-80
2021/12/14 08:10:41;;;;;;;66.27;31.30;;;;;;;3.03;100.00;101633.13;5022933;58;1143426;-80
2021/12/14 08:15:57;;;;;;;56.13;26.70;;;;;;;3.06;100.00;101626.48;5022911;58;1143151;-80
2021/12/14 08:21:15;;;;;;;65.07;31.00;;;;;;;3.12;100.00;101626.31;5110418;57;1143126;-80
2021/12/14 08:26:34;;;;;;;57.73;25.27;;;;;;;3.17;100.00;101622.27;5028004;57;1143309;-80
2021/12/14 08:31:47;;;;;;;46.83;22.10;;;;;;;3.15;100.00;101622.31;5069710;58;1141063;-80
2021/12/14 08:37:07;;;;;;;51.18;22.00;;;;;;;3.11;100.00;101620.69;5149140;57;1141128;-81
2021/12/14 08:42:34;;;;;;;48.43;26.33;;;;;;;3.10;100.00;101617.66;5069089;57;1141288;-80
2021/12/14 08:47:40;;;;;;;40.53;19.87;;;;;;;3.18;100.00;101623.98;4751961;61;1141209;-81
2021/12/14 08:52:47;;;;;;;67.30;27.83;;;;;;;3.23;100.00;101620.77;4824699;60;1141304;-80
2021/12/14 08:57:53;;;;;;;67.03;34.30;;;;;;;3.23;100.00;101620.77;4885113;58;1139167;-81
2021/12/14 09:03:01;;;;;;;53.50;25.73;;;;;;;3.23;100.00;101631.67;4884613;59;1139016;-80
2021/12/14 09:08:07;;;;;;;51.73;23.12;;;;;;;3.27;100.00;101628.93;4884522;59;1141133;-81
2021/12/14 09:13:15;;;;;;;78.47;38.03;;;;;;;3.33;100.00;101640.98;4885411;58;1141313;-81
2021/12/14 09:18:22;;;;;;;158.57;60.00;;;;;;;3.33;100.00;101640.98;4882781;59;1141235;-80
2021/12/14 09:23:32;;;;;;;69.03;31.73;;;;;;;3.32;100.00;101640.13;4998828;58;1141137;-80
2021/12/14 09:28:38;;;;;;;58.10;25.97;;;;;;;3.32;100.00;101636.65;5054665;58;1139090;-79
2021/12/14 09:33:44;;;;;;;57.37;26.27;;;;;;;3.30;100.00;101631.91;5101689;58;1141177;-80
2021/12/14 09:38:57;;;;;;;75.57;38.73;;;;;;;3.32;100.00;101638.81;4942304;58;1139116;-80
2021/12/14 09:44:08;;;;;;;86.57;45.67;;;;;;;3.34;100.00;101635.70;5020145;58;1143904;-81
2021/12/14 09:49:16;;;;;;;120.00;57.50;;;;;;;3.38;100.00;101625.98;5020492;58;1143240;-80
2021/12/14 09:54:25;;;;;;;114.70;59.13;;;;;;;3.41;100.00;101631.13;4941859;59;1143483;-83
2021/12/14 09:59:32;;;;;;;98.23;46.23;;;;;;;3.47;100.00;101621.80;4940643;59;1143197;-82
2021/12/14 10:04:42;;;;;;;108.37;49.47;;;;;;;3.54;100.00;101615.02;5025449;58;1143147;-82
2021/12/14 10:09:51;;;;;;;137.30;70.50;;;;;;;3.59;100.00;101608.80;4944674;59;1145353;-82
2021/12/14 10:14:57;;;;;;;136.73;69.20;;;;;;;3.59;100.00;101606.17;4954981;58;1143311;-81
2021/12/14 10:20:06;;;;;;;81.90;46.67;;;;;;;3.60;100.00;101602.66;4945000;58;1143248;-81
2021/12/14 10:25:15;;;;;;;74.20;41.23;;;;;;;3.60;100.00;101600.90;4968888;58;1143259;-82
2021/12/14 10:30:35;;;;;;;66.93;39.47;;;;;;;3.61;100.00;101598.69;4999104;58;1143319;-81
2021/12/14 10:35:47;;;;;;;64.67;34.50;;;;;;;3.65;100.00;101593.77;5071331;57;1143353;-81
2021/12/14 10:46:40;;;;;;;93.50;52.67;;;;;;;3.73;100.00;101584.35;5098583;57;1143589;-83
2021/12/14 10:51:48;;;;;;;;;;;;;;;3.71;100.00;101583.55;5067648;57;1141107;-83
2021/12/14 10:56:58;;;;;;;109.17;45.07;;;;;;;3.67;100.00;101584.09;5066505;58;974593;-81
2021/12/14 11:02:05;;;;;;;94.10;47.07;;;;;;;3.67;100.00;101584.09;5079603;57;1143268;-80
2021/12/14 11:07:19;;;;;;;56.27;30.20;;;;;;;3.68;100.00;101577.09;5147049;57;1143170;-80
2021/12/14 11:12:32;;;;;;;146.77;51.33;;;;;;;3.69;100.00;101574.44;5147154;57;1143201;-82
2021/12/14 11:23:24;;;;;;;166.63;77.87;;;;;;;3.75;100.00;101555.08;5063725;57;1141105;-82
2021/12/14 11:28:34;;;;;;;103.80;51.33;;;;;;;3.74;100.00;101554.22;5063628;58;1141140;-81
2021/12/14 11:33:48;;;;;;;209.10;87.43;;;;;;;3.75;100.00;101545.47;5072159;57;1141155;-83
2021/12/14 11:39:24;;;;;;;193.83;69.47;;;;;;;3.80;100.00;101552.72;5073301;57;1143348;-82
2021/12/14 11:44:36;;;;;;;156.60;63.17;;;;;;;3.83;100.00;101555.66;5073315;57;1145210;-81
2021/12/14 11:49:47;;;;;;;89.05;32.33;;;;;;;3.87;100.00;101551.59;5073498;57;1145275;-81
2021/12/14 11:54:53;;;;;;;152.10;63.43;;;;;;;3.90;100.00;101545.41;5073388;57;1143220;-81
2021/12/14 12:00:12;;;;;;;110.77;41.30;;;;;;;3.86;100.00;101543.34;5073154;57;1143348;-83
2021/12/14 12:05:30;;;;;;;76.93;30.40;;;;;;;3.87;100.00;101546.36;5140923;57;1145340;-79
2021/12/14 12:10:43;;;;;;;69.67;28.40;;;;;;;3.88;100.00;101548.52;5145763;57;1143454;-83
2021/12/14 12:15:49;;;;;;;70.53;33.60;;;;;;;3.88;100.00;101553.76;5133940;57;1143124;-81
2021/12/14 12:20:56;;;;;;;59.60;29.63;;;;;;;3.89;100.00;101556.78;5063044;57;1143307;-81
2021/12/14 12:26:09;;;;;;;182.20;71.30;;;;;;;3.95;100.00;101560.97;5096068;57;1143201;-81
2021/12/14 12:31:16;;;;;;;103.87;43.37;;;;;;;3.96;100.00;101554.38;5149171;57;1145224;-81
2021/12/14 12:36:39;;;;;;;59.43;27.63;;;;;;;3.99;100.00;101559.94;5149551;57;1145315;-80
2021/12/14 12:41:58;;;;;;;202.83;82.23;;;;;;;4.01;100.00;101556.36;5152063;57;1143226;-80
2021/12/14 12:47:18;;;;;;;77.77;35.00;;;;;;;4.05;100.00;101551.44;5152257;57;1145302;-81
2021/12/14 12:52:34;;;;;;;83.13;34.30;;;;;;;4.08;100.00;101553.95;5152187;57;1143091;-80
2021/12/14 12:57:58;;;;;;;83.00;33.93;;;;;;;4.12;100.00;101553.41;5151985;57;1143112;-81
2021/12/14 13:03:08;;;;;;;93.53;45.20;;;;;;;4.13;100.00;101540.23;5151318;57;1141008;-80
2021/12/14 13:08:30;;;;;;;69.57;36.27;;;;;;;4.18;100.00;101538.77;5142798;57;1141176;-82
2021/12/14 13:13:41;;;;;;;79.67;38.15;;;;;;;4.20;100.00;101550.91;5147121;57;1141037;-80
2021/12/14 13:18:57;;;;;;;63.57;29.73;;;;;;;4.26;100.00;101535.45;5083841;57;1141237;-80
2021/12/14 13:24:39;;;;;;;57.00;26.37;;;;;;;4.31;100.00;101541.81;4902813;59;1141251;-80
2021/12/14 13:29:56;;;;;;;49.07;25.07;;;;;;;4.35;100.00;101539.49;4906604;60;1140408;-80
2021/12/14 13:35:24;;;;;;;46.85;24.37;;;;;;;4.37;100.00;101531.98;4986924;57;1143290;-80
2021/12/14 13:40:37;;;;;;;55.87;27.70;;;;;;;4.37;100.00;101527.20;5131253;57;1143262;-79
2021/12/14 13:45:47;;;;;;;55.60;27.57;;;;;;;4.35;100.00;101535.11;5131928;57;1143198;-82
2021/12/14 13:51:09;;;;;;;46.27;23.23;;;;;;;4.34;100.00;101537.33;5132026;57;1143691;-81
2021/12/14 13:56:20;;;;;;;53.00;23.23;;;;;;;4.34;100.00;101545.63;5132540;57;1143144;-80
2021/12/14 14:01:44;;;;;;;44.70;21.13;;;;;;;4.33;100.00;101559.64;5132033;57;1143196;-80
2021/12/14 14:06:52;;;;;;;226.07;101.43;;;;;;;4.32;100.00;101562.70;5131521;57;1142674;-79
2021/12/14 14:12:14;;;;;;;75.60;41.93;;;;;;;4.31;100.00;101559.69;5133082;57;1147794;-81
2021/12/14 14:17:25;;;;;;;92.22;53.87;;;;;;;4.34;100.00;101557.42;5131679;57;1143366;-79
2021/12/14 14:22:34;;;;;;;67.20;35.63;;;;;;;4.36;100.00;101563.02;5131157;57;1143252;-78
2021/12/14 14:27:51;;;;;;;73.50;38.33;;;;;;;4.40;100.00;101571.17;5130924;57;1143507;-79
2021/12/14 14:33:19;;;;;;;85.10;37.13;;;;;;;4.43;100.00;101582.00;4873756;60;1143718;-79
2021/12/14 14:38:44;;;;;;;80.10;31.77;;;;;;;4.45;100.00;101574.91;4816033;61;1143449;-79
2021/12/14 14:44:06;;;;;;;97.50;39.03;;;;;;;4.44;100.00;101583.67;4816221;61;1141164;-79
2021/12/14 14:49:28;;;;;;;261.67;97.37;;;;;;;4.43;100.00;101591.16;4815703;61;1141423;-79
2021/12/14 14:54:41;;;;;;;90.95;38.88;;;;;;;4.46;100.00;101600.20;4816004;61;1143448;-79
2021/12/14 15:00:06;;;;;;;188.37;88.77;;;;;;;4.46;100.00;101591.03;4819650;60;1141618;-79
2021/12/14 15:05:18;;;;;;;175.83;95.07;;;;;;;4.49;100.00;101601.41;4820864;59;1145693;-79
2021/12/14 15:10:26;;;;;;;;;;;;;;;4.45;100.00;101595.41;4973011;58;1145246;-79
2021/12/14 15:15:32;;;;;;;532.57;216.63;;;;;;;4.43;100.00;101597.71;4956600;58;976443;-79
2021/12/14 15:20:38;;;;;;;114.77;52.30;;;;;;;4.42;100.00;101589.45;5010045;58;1145212;-79
2021/12/14 15:25:44;;;;;;;57.47;29.47;;;;;;;4.43;100.00;101581.52;5092026;57;1145246;-79
2021/12/14 15:30:54;;;;;;;60.55;32.05;;;;;;;4.48;100.00;101576.12;5009896;58;1143643;-79
2021/12/14 15:36:06;;;;;;;383.10;184.07;;;;;;;4.51;100.00;101574.25;4979455;58;1143566;-79
2021/12/14 15:41:19;;;;;;;325.18;130.75;;;;;;;4.55;100.00;101575.00;5061939;57;1147524;-79
2021/12/14 15:46:36;;;;;;;58.77;30.47;;;;;;;4.51;100.00;101587.35;5061864;57;1147571;-79
2021/12/14 15:51:55;;;;;;;47.07;23.57;;;;;;;4.50;100.00;101583.02;5062005;57;1143290;-79
2021/12/14 15:57:17;;;;;;;85.13;44.50;;;;;;;4.54;100.00;101574.15;5062807;57;1143458;-79
2021/12/14 16:02:24;;;;;;;159.67;73.37;;;;;;;4.54;100.00;101576.77;5056583;57;1143229;-79
2021/12/14 16:07:37;;;;;;;70.30;37.80;;;;;;;4.55;100.00;101578.94;5141767;57;1145636;-80
2021/12/14 16:18:01;;;;;;;117.17;46.37;;;;;;;4.56;100.00;101598.98;5097683;57;1145301;-79
2021/12/14 16:23:12;;;;;;;79.53;35.43;;;;;;;4.56;100.00;101590.67;5057488;58;1145597;-79
2021/12/14 16:28:22;;;;;;;101.43;38.63;;;;;;;4.57;100.00;101591.53;5067888;58;1143151;-79
2021/12/14 16:33:41;;;;;;;78.03;31.13;;;;;;;4.56;100.00;101600.30;5067524;58;1145357;-80
2021/12/14 16:38:54;;;;;;;138.63;44.90;;;;;;;4.55;100.00;101602.06;5048416;58;1141525;-79
2021/12/14 16:44:08;;;;;;;188.87;118.83;;;;;;;4.54;100.00;101612.13;5048505;57;1143453;-79
2021/12/14 16:49:22;;;;;;;80.97;38.33;;;;;;;4.54;100.00;101611.28;5048419;58;1145507;-79
2021/12/14 16:54:27;;;;;;;77.70;33.57;;;;;;;4.52;100.00;101599.54;5048741;58;1141386;-79
2021/12/14 16:59:37;;;;;;;68.33;31.83;;;;;;;4.53;100.00;101610.42;5048431;58;1141173;-80
2021/12/14 17:04:47;;;;;;;75.83;36.73;;;;;;;4.54;100.00;101607.34;4968058;58;1141135;-79
2021/12/14 17:09:55;;;;;;;181.97;79.47;;;;;;;4.56;100.00;101606.39;4967964;58;1141190;-79
2021/12/14 17:15:05;;;;;;;158.40;76.77;;;;;;;4.57;100.00;101613.34;4968076;58;1143202;-79
2021/12/14 17:20:12;;;;;;;82.17;44.70;;;;;;;4.59;100.00;101621.13;5047059;58;1143228;-79
2021/12/14 17:25:21;;;;;;;92.23;46.70;;;;;;;4.58;100.00;101624.19;5105619;57;1141329;-79
2021/12/14 17:30:30;;;;;;;148.57;68.50;;;;;;;4.62;100.00;101622.78;5048994;58;1139092;-80
2021/12/14 17:35:38;;;;;;;78.57;45.20;;;;;;;4.63;100.00;101625.35;5151641;57;21195;-79
2021/12/14 17:40:47;;;;;;;56.10;32.47;;;;;;;4.66;100.00;101624.39;5049131;58;1139449;-79
2021/12/14 17:45:52;;;;;;;269.23;177.43;;;;;;;4.68;100.00;101632.61;5132132;57;1143407;-80
2021/12/14 17:51:10;;;;;;;252.83;82.50;;;;;;;4.71;100.00;101636.44;5049027;58;1147417;-80
2021/12/14 17:56:09;;;;;;;79.03;33.80;;;;;;;4.73;100.00;101639.00;5130071;57;1145403;-79
2021/12/14 18:01:19;;;;;;;97.70;37.07;;;;;;;4.75;100.00;101648.95;5041061;58;1143317;-79
2021/12/14 18:06:29;;;;;;;211.93;80.03;;;;;;;4.76;100.00;101648.90;5016144;58;1143222;-80
2021/12/14 18:11:42;;;;;;;440.60;180.40;;;;;;;4.77;100.00;101650.61;5100389;57;1145505;-79
2021/12/14 18:16:56;;;;;;;86.55;43.38;;;;;;;4.77;100.00;101654.55;5083748;57;1147366;-80
2021/12/14 18:22:08;;;;;;;68.60;32.73;;;;;;;4.79;100.00;101661.90;5048413;58;1143211;-80
2021/12/14 18:27:19;;;;;;;49.40;22.17;;;;;;;4.80;100.00;101666.69;5095891;57;1143170;-79
2021/12/14 18:32:30;;;;;;;44.57;26.43;;;;;;;4.80;100.00;101674.55;5048743;58;1143737;-79
2021/12/14 18:37:40;;;;;;;40.17;21.55;;;;;;;4.79;100.00;101667.14;5117670;57;1143274;-80
2021/12/14 18:42:48;;;;;;;65.43;24.67;;;;;;;4.78;100.00;101677.22;5076065;57;1143206;-81
2021/12/14 18:53:20;;;;;;;56.53;24.47;;;;;;;4.78;100.00;101670.67;5116262;57;1143326;-79
2021/12/14 18:58:42;;;;;;;38.87;20.27;;;;;;;4.78;100.00;101669.36;5077546;57;1143196;-79
2021/12/14 19:04:01;;;;;;;37.10;20.40;;;;;;;4.77;100.00;101667.64;5099185;57;1143423;-81
2021/12/14 19:09:22;;;;;;;36.93;19.77;;;;;;;4.74;100.00;101672.98;5078857;57;1143261;-79
2021/12/14 19:14:22;;;;;;;29.23;16.03;;;;;;;4.78;100.00;101673.74;5141128;57;1141110;-81
2021/12/14 19:19:30;;;;;;;37.00;20.13;;;;;;;4.80;100.00;101670.63;5148390;57;1141367;-81
2021/12/14 19:24:37;;;;;;;33.63;19.37;;;;;;;4.83;100.00;101671.83;5098348;57;1141309;-80
2021/12/14 19:29:53;;;;;;;48.20;23.53;;;;;;;4.84;100.00;101669.61;5010920;58;1141137;-80
2021/12/14 19:35:11;;;;;;;42.80;25.10;;;;;;;4.86;100.00;101670.41;5034575;58;1141607;-78
2021/12/14 19:40:34;;;;;;;47.10;22.30;;;;;;;4.87;100.00;101679.53;5051402;58;1141128;-82
2021/12/14 19:45:43;;;;;;;25.50;15.00;;;;;;;4.88;100.00;101685.19;5049687;58;1141110;-82
2021/12/14 19:50:54;;;;;;;43.27;23.13;;;;;;;4.89;100.00;101684.70;5019793;59;1141227;-80
2021/12/14 19:56:01;;;;;;;49.80;26.93;;;;;;;4.88;100.00;101686.50;4939564;59;1139333;-81
2021/12/14 20:01:15;;;;;;;41.27;21.20;;;;;;;4.89;100.00;101682.93;4898658;59;21207;-80
2021/12/14 20:06:28;;;;;;;46.90;24.47;;;;;;;4.90;100.00;101696.89;4954466;59;1139116;-79
2021/12/14 20:11:41;;;;;;;43.08;21.50;;;;;;;4.91;100.00;101699.47;4979034;58;1143242;-81
2021/12/14 20:16:50;;;;;;;50.88;25.43;;;;;;;4.94;100.00;101705.06;4998823;58;1143271;-82
2021/12/14 20:21:58;;;;;;;53.23;25.87;;;;;;;4.95;100.00;101712.02;5044130;57;1143137;-81
2021/12/14 20:27:08;;;;;;;49.07;24.67;;;;;;;4.98;100.00;101711.91;5047740;58;1143156;-80
2021/12/14 20:32:30;;;;;;;42.43;21.57;;;;;;;4.99;100.00;101711.01;5047829;58;1143242;-81
2021/12/14 20:37:36;;;;;;;43.10;22.20;;;;;;;5.00;100.00;101711.87;4994021;58;1143190;-80
2021/12/14 20:42:55;;;;;;;52.23;23.93;;;;;;;5.01;100.00;101714.89;4936295;58;1143088;-81
2021/12/14 20:48:00;;;;;;;62.20;28.10;;;;;;;5.02;100.00;101710.91;5062195;57;1143157;-79
2021/12/14 20:53:10;;;;;;;41.27;17.97;;;;;;;5.04;100.00;101709.05;4999370;58;1143204;-82
2021/12/14 20:58:27;;;;;;;52.23;26.53;;;;;;;5.03;100.00;101706.06;4978870;58;1143223;-82
2021/12/14 21:03:37;;;;;;;48.87;23.35;;;;;;;5.03;100.00;101711.77;4921879;58;1143194;-80
2021/12/14 21:09:06;;;;;;;46.63;22.60;;;;;;;5.01;100.00;101719.68;4885355;58;1143166;-84
2021/12/14 21:14:26;;;;;;;41.83;22.23;;;;;;;5.01;100.00;101714.89;4899053;59;1143455;-80
2021/12/14 21:19:45;;;;;;;33.87;17.70;;;;;;;5.00;100.00;101719.73;4952129;59;1143592;-81
2021/12/14 21:25:07;;;;;;;42.73;21.87;;;;;;;5.00;100.00;101711.87;4966046;58;1140989;-80
2021/12/14 21:30:17;;;;;;;47.33;24.77;;;;;;;5.01;100.00;101718.37;4876816;59;1141152;-83
2021/12/14 21:35:33;;;;;;;49.07;22.40;;;;;;;5.03;100.00;101728.35;5024490;58;1141341;-81
2021/12/14 21:40:50;;;;;;;50.17;25.23;;;;;;;5.04;100.00;101730.03;5078068;57;1141437;-82
2021/12/14 21:45:57;;;;;;;39.20;18.57;;;;;;;5.04;100.00;101739.20;5111142;57;1141208;-83
2021/12/14 21:51:03;;;;;;;44.30;21.43;;;;;;;5.08;100.00;101741.27;5111512;57;1141117;-80
2021/12/14 21:56:10;;;;;;;52.63;23.70;;;;;;;5.09;100.00;101744.30;5111102;57;1141189;-83
2021/12/14 22:01:17;;;;;;;36.33;19.90;;;;;;;5.11;100.00;101749.04;5111390;57;1141389;-83
2021/12/14 22:06:22;;;;;;;43.57;20.90;;;;;;;5.14;100.00;101755.50;5111270;57;1139280;-82
2021/12/14 22:11:30;;;;;;;43.80;21.37;;;;;;;5.15;100.00;101756.76;5111553;57;1139047;-81
2021/12/14 22:16:43;;;;;;;40.95;21.45;;;;;;;5.14;100.00;101760.73;5145333;56;1143123;-83
2021/12/14 22:21:48;;;;;;;37.55;18.20;;;;;;;5.13;100.00;101757.27;5283560;56;1143475;-82
2021/12/14 22:26:54;;;;;;;45.43;21.90;;;;;;;5.13;100.00;101758.57;5199215;56;1143287;-82
2021/12/14 22:32:00;;;;;;;42.90;19.10;;;;;;;5.12;100.00;101761.24;5198634;56;1143426;-82
2021/12/14 22:37:08;;;;;;;31.30;15.00;;;;;;;5.11;100.00;101764.77;5199273;56;1143350;-83
2021/12/14 22:42:33;;;;;;;33.50;16.33;;;;;;;5.11;100.00;101759.08;5214182;56;1143439;-84
2021/12/14 22:47:23;;;;;;;40.23;19.37;;;;;;;5.11;100.00;101764.32;5213782;56;1143217;-83
2021/12/14 22:52:32;;;;;;;43.77;21.17;;;;;;;5.14;100.00;101774.70;5217863;56;1143242;-82
2021/12/14 22:57:39;;;;;;;38.37;19.03;;;;;;;5.17;100.00;101778.99;5217862;56;1143639;-82
2021/12/14 23:02:45;;;;;;;41.90;21.07;;;;;;;5.11;100.00;101769.56;5218497;56;1143481;-82
2021/12/14 23:07:51;;;;;;;49.08;22.45;;;;;;;5.24;100.00;101783.09;5220097;56;1143231;-81
2021/12/14 23:13:02;;;;;;;54.33;20.37;;;;;;;5.37;100.00;101782.20;5218979;56;1143515;-83
2021/12/14 23:18:11;;;;;;;45.43;20.40;;;;;;;5.39;100.00;101796.13;5187331;56;1143377;-83
2021/12/14 23:23:15;;;;;;;50.77;21.47;;;;;;;5.31;100.00;101796.41;5174769;56;1143202;-83
2021/12/14 23:28:22;;;;;;;60.37;22.40;;;;;;;5.25;100.00;101797.47;5105496;57;1143188;-82
2021/12/14 23:33:29;;;;;;;76.10;32.77;;;;;;;5.26;100.00;101788.70;5095436;57;1143096;-81
2021/12/14 23:38:37;;;;;;;190.20;51.67;;;;;;;5.29;100.00;101795.61;5134158;57;1143229;-81
2021/12/14 23:43:45;;;;;;;108.40;32.17;;;;;;;5.28;100.00;101792.13;5125089;57;1145541;-82
2021/12/14 23:48:53;;;;;;;56.17;23.73;;;;;;;5.25;100.00;101780.88;5122296;57;1145493;-82